createdAt,value
2024-04-18T00:02:16.434Z,14.35
2024-04-18T00:04:44.521Z,10.27
2024-04-18T00:07:12.381Z,16.20
2024-04-18T00:09:39.953Z,18.65
2024-04-18T00:12:07.729Z,21.38
2024-04-18T00:14:35.310Z,13.13
2024-04-18T00:17:02.822Z,18.35
2024-04-18T00:19:30.458Z,10.88
2024-04-18T00:22:01.270Z,13.82
2024-04-18T00:24:29.630Z,11.45
2024-04-18T00:26:57.510Z,18.20
2024-04-18T00:29:25.042Z,16.23
2024-04-18T00:31:52.596Z,16.08
2024-04-18T00:34:20.150Z,14.65
2024-04-18T00:36:47.770Z,24.85
2024-04-18T00:39:15.385Z,9.10
2024-04-18T00:41:42.964Z,13.20
2024-04-18T00:44:12.383Z,12.77
2024-04-18T00:46:40.915Z,11.55
2024-04-18T00:49:10.074Z,14.70
2024-04-18T00:51:37.811Z,17.13
2024-04-18T00:54:05.852Z,10.80
2024-04-18T00:56:34.231Z,16.33
2024-04-18T00:59:03.916Z,11.50
2024-04-18T01:01:32.044Z,23.67
2024-04-18T01:03:59.991Z,12.90
2024-04-18T01:06:29.160Z,16.08
2024-04-18T01:08:57.887Z,15.02
2024-04-18T01:11:25.496Z,13.15
2024-04-18T01:13:53.030Z,9.35
2024-04-18T01:16:20.671Z,17.63
2024-04-18T01:18:48.315Z,10.80
2024-04-18T01:21:15.982Z,22.42
2024-04-18T01:23:43.562Z,15.60
2024-04-18T01:26:14.269Z,15.18
2024-04-18T01:28:41.855Z,16.85
2024-04-18T01:31:09.414Z,12.52
2024-04-18T01:33:37.019Z,15.60
2024-04-18T01:36:04.869Z,17.17
2024-04-18T01:38:32.450Z,11.43
2024-04-18T01:40:59.986Z,12.25
2024-04-18T01:43:27.586Z,13.30
2024-04-18T01:45:55.130Z,12.23
2024-04-18T01:48:22.890Z,11.40
2024-04-18T01:50:50.567Z,10.93
2024-04-18T01:53:18.046Z,12.15
2024-04-18T01:55:45.601Z,12.10
2024-04-18T01:58:13.179Z,10.30
2024-04-18T02:00:49.965Z,9.88
2024-04-18T02:03:17.816Z,15.55
2024-04-18T02:05:45.338Z,22.58
2024-04-18T02:08:15.212Z,16.27
2024-04-18T02:10:44.849Z,13.65
2024-04-18T02:13:12.436Z,9.02
2024-04-18T02:15:39.956Z,16.60
2024-04-18T02:18:07.598Z,13.80
2024-04-18T02:20:35.229Z,10.32
2024-04-18T02:23:02.729Z,22.73
2024-04-18T02:25:30.347Z,10.05
2024-04-18T02:27:57.905Z,12.70
2024-04-18T02:30:27.330Z,12.48
2024-04-18T02:32:55.391Z,15.90
2024-04-18T02:35:23.002Z,11.98
2024-04-18T02:37:50.624Z,15.70
2024-04-18T02:40:18.177Z,12.68
2024-04-18T02:42:45.811Z,16.58
2024-04-18T02:45:13.485Z,20.13
2024-04-18T02:47:41.221Z,9.60
2024-04-18T02:50:08.808Z,12.35
2024-04-18T02:52:36.506Z,13.15
2024-04-18T02:55:04.199Z,19.38
2024-04-18T02:57:31.703Z,12.60
2024-04-18T03:00:01.572Z,9.40
2024-04-18T03:02:29.227Z,12.52
2024-04-18T03:04:56.796Z,9.82
2024-04-18T03:07:24.404Z,10.63
2024-04-18T03:09:52.222Z,13.10
2024-04-18T03:12:19.986Z,10.43
2024-04-18T03:14:47.584Z,15.80
2024-04-18T03:17:15.159Z,10.98
2024-04-18T03:19:42.794Z,20.48
2024-04-18T03:22:10.294Z,12.10
2024-04-18T03:24:37.827Z,14.98
2024-04-18T03:27:05.727Z,16.55
2024-04-18T03:29:33.250Z,12.82
2024-04-18T03:32:01.121Z,20.65
2024-04-18T03:34:30.033Z,15.90
2024-04-18T03:36:57.533Z,12.27
2024-04-18T03:39:29.146Z,14.05
2024-04-18T03:41:56.791Z,17.33
2024-04-18T03:44:24.337Z,14.43
2024-04-18T03:46:51.824Z,15.80
2024-04-18T03:49:19.361Z,9.90
2024-04-18T03:51:46.945Z,11.95
2024-04-18T03:54:14.563Z,16.08
2024-04-18T03:56:42.099Z,11.50
2024-04-18T03:59:09.765Z,15.25
2024-04-18T04:01:37.318Z,15.07
2024-04-18T04:04:05.113Z,9.20
2024-04-18T04:06:35.376Z,11.60
2024-04-18T04:09:03.487Z,14.93
2024-04-18T04:11:32.593Z,12.95
2024-04-18T04:14:01.140Z,18.60
2024-04-18T04:16:29.751Z,14.68
2024-04-18T04:18:57.504Z,11.85
2024-04-18T04:21:25.799Z,13.25
2024-04-18T04:23:53.784Z,12.73
2024-04-18T04:26:21.445Z,14.00
2024-04-18T04:28:48.959Z,11.20
2024-04-18T04:31:16.535Z,10.95
2024-04-18T04:33:44.232Z,14.57
2024-04-18T04:36:11.762Z,20.55
2024-04-18T04:38:39.367Z,17.00
2024-04-18T04:41:07.034Z,13.48
2024-04-18T04:43:34.555Z,17.85
2024-04-18T04:46:02.316Z,17.45
2024-04-18T04:48:31.137Z,16.60
2024-04-18T04:51:01.765Z,11.85
2024-04-18T04:53:29.572Z,14.27
2024-04-18T04:55:57.127Z,10.00
2024-04-18T04:58:24.905Z,9.07
2024-04-18T05:00:52.819Z,18.30
2024-04-18T05:03:21.187Z,18.65
2024-04-18T05:05:48.744Z,17.98
2024-04-18T05:08:16.288Z,13.68
2024-04-18T05:10:44.907Z,16.83
2024-04-18T05:13:15.529Z,11.52
2024-04-18T05:15:43.418Z,13.80
2024-04-18T05:18:11.305Z,16.70
2024-04-18T05:20:39.202Z,15.02
2024-04-18T05:23:07.796Z,15.48
2024-04-18T05:25:35.912Z,10.55
2024-04-18T05:28:03.667Z,15.18
2024-04-18T05:30:31.637Z,17.63
2024-04-18T05:32:59.398Z,12.27
2024-04-18T05:35:27.221Z,20.05
2024-04-18T05:37:54.791Z,15.38
2024-04-18T05:40:22.348Z,18.33
2024-04-18T05:42:49.991Z,15.90
2024-04-18T05:45:17.633Z,14.00
2024-04-18T05:47:45.175Z,11.70
2024-04-18T05:50:12.862Z,12.77
2024-04-18T05:52:40.350Z,13.80
2024-04-18T05:55:07.953Z,13.80
2024-04-18T05:57:35.529Z,11.80
2024-04-18T06:00:03.349Z,10.55
2024-04-18T06:02:31.115Z,12.95
2024-04-18T06:04:58.763Z,14.13
2024-04-18T06:07:26.244Z,13.30
2024-04-18T06:09:53.772Z,10.82
2024-04-18T06:12:21.426Z,16.40
2024-04-18T06:14:49.107Z,14.38
2024-04-18T06:17:17.509Z,13.10
2024-04-18T06:19:49.090Z,12.88
2024-04-18T06:22:16.646Z,16.88
2024-04-18T06:24:46.040Z,13.40
2024-04-18T06:27:15.787Z,10.70
2024-04-18T06:29:43.317Z,11.80
2024-04-18T06:32:10.827Z,13.77
2024-04-18T06:34:38.332Z,11.45
2024-04-18T06:37:08.017Z,11.10
2024-04-18T06:39:36.353Z,15.85
2024-04-18T06:42:04.150Z,15.77
2024-04-18T06:44:31.665Z,17.52
2024-04-18T06:47:02.141Z,12.40
2024-04-18T06:49:30.386Z,12.13
2024-04-18T06:51:57.837Z,18.05
2024-04-18T06:54:25.561Z,15.75
2024-04-18T06:56:53.203Z,14.93
2024-04-18T06:59:21.914Z,16.27
2024-04-18T07:01:49.502Z,16.15
2024-04-18T07:04:18.730Z,15.98
2024-04-18T07:06:46.402Z,13.43
2024-04-18T07:09:13.939Z,9.23
2024-04-18T07:11:41.587Z,12.35
2024-04-18T07:14:09.113Z,15.82
2024-04-18T07:16:36.714Z,15.63
2024-04-18T07:19:04.454Z,15.38
2024-04-18T07:21:32.063Z,16.85
2024-04-18T07:24:01.738Z,14.43
2024-04-18T07:26:29.739Z,12.38
2024-04-18T07:28:57.276Z,10.60
2024-04-18T07:31:24.936Z,15.57
2024-04-18T07:33:52.552Z,16.35
2024-04-18T07:36:20.203Z,13.85
2024-04-18T07:38:47.768Z,12.52
2024-04-18T07:41:15.295Z,24.02
2024-04-18T07:43:42.851Z,12.77
2024-04-18T07:46:10.610Z,17.00
2024-04-18T07:48:38.273Z,15.25
2024-04-18T07:51:05.897Z,13.30
2024-04-18T07:53:33.556Z,8.82
2024-04-18T07:56:01.327Z,15.48
2024-04-18T07:58:29.833Z,14.30
2024-04-18T08:00:59.157Z,12.20
2024-04-18T08:05:59.974Z,12.20
2024-04-18T08:08:32.372Z,5.95
2024-04-18T08:11:16.957Z,15.27
2024-04-18T08:13:52.481Z,15.57
2024-04-18T08:16:22.729Z,12.85
2024-04-18T08:18:50.640Z,14.18
2024-04-18T08:21:18.332Z,10.50
2024-04-18T08:23:46.016Z,18.45
2024-04-18T08:26:13.547Z,14.15
2024-04-18T08:28:41.054Z,14.38
2024-04-18T08:31:08.673Z,19.30
2024-04-18T08:33:36.272Z,16.17
2024-04-18T08:36:04.025Z,6.95
2024-04-18T08:38:31.599Z,4.25
2024-04-18T08:41:02.910Z,10.35
2024-04-18T08:43:31.040Z,5.97
2024-04-18T08:45:59.212Z,10.00
2024-04-18T08:48:27.935Z,10.15
2024-04-18T08:50:56.838Z,7.07
2024-04-18T08:53:24.502Z,7.72
2024-04-18T08:55:54.669Z,7.18
2024-04-18T08:58:23.130Z,7.30
2024-04-18T09:00:50.872Z,8.55
2024-04-18T09:03:18.464Z,8.85
2024-04-18T09:05:46.050Z,7.03
2024-04-18T09:08:13.580Z,7.85
2024-04-18T09:10:42.186Z,6.22
2024-04-18T09:13:11.166Z,5.35
2024-04-18T09:15:38.895Z,5.00
2024-04-18T09:18:09.940Z,8.80
2024-04-18T09:20:38.852Z,17.30
2024-04-18T09:23:06.638Z,14.88
2024-04-18T09:25:37.148Z,4.07
2024-04-18T09:28:06.958Z,9.40
2024-04-18T09:30:37.804Z,4.85
2024-04-18T09:33:07.572Z,7.55
2024-04-18T09:35:36.199Z,6.35
2024-04-18T09:38:10.137Z,7.05
2024-04-18T09:40:41.389Z,14.25
2024-04-18T09:43:32.010Z,8.23
2024-04-18T09:46:06.796Z,6.15
2024-04-18T09:48:34.758Z,5.78
2024-04-18T09:51:04.445Z,5.55
2024-04-18T09:53:32.520Z,9.00
2024-04-18T09:56:03.689Z,6.70
2024-04-18T09:58:32.104Z,2.50
2024-04-18T10:01:00.570Z,6.85
2024-04-18T10:03:30.224Z,2.85
2024-04-18T10:06:02.350Z,8.13
2024-04-18T10:08:34.270Z,7.82
2024-04-18T10:11:03.347Z,4.30
2024-04-18T10:13:31.913Z,8.85
2024-04-18T10:16:11.143Z,6.00
2024-04-18T10:18:40.496Z,7.68
2024-04-18T10:21:22.510Z,5.32
2024-04-18T10:23:55.974Z,7.60
2024-04-18T10:26:24.346Z,7.63
2024-04-18T10:28:52.228Z,5.28
2024-04-18T10:31:20.088Z,8.88
2024-04-18T10:33:48.615Z,8.77
2024-04-18T10:36:18.031Z,7.05
2024-04-18T10:38:47.649Z,7.45
2024-04-18T10:41:24.264Z,5.75
2024-04-18T10:43:51.964Z,8.40
2024-04-18T10:46:20.540Z,13.60
2024-04-18T10:48:53.997Z,6.50
2024-04-18T10:51:22.470Z,8.32
2024-04-18T10:53:50.040Z,4.95
2024-04-18T10:56:17.692Z,9.70
2024-04-18T10:58:45.364Z,5.32
2024-04-18T11:01:19.346Z,9.90
2024-04-18T11:03:51.879Z,6.80
2024-04-18T11:06:19.488Z,14.05
2024-04-18T11:08:47.050Z,11.27
2024-04-18T11:11:14.691Z,12.82
2024-04-18T11:13:42.741Z,3.65
2024-04-18T11:16:10.413Z,9.52
2024-04-18T11:18:38.105Z,6.55
2024-04-18T11:21:06.157Z,9.75
2024-04-18T11:23:44.057Z,5.57
2024-04-18T11:26:15.352Z,5.63
2024-04-18T11:28:42.925Z,7.65
2024-04-18T11:31:10.476Z,3.95
2024-04-18T11:33:39.805Z,8.82
2024-04-18T11:36:08.716Z,6.60
2024-04-18T11:38:36.539Z,7.32
2024-04-18T11:41:04.579Z,7.93
2024-04-18T11:43:32.136Z,4.25
2024-04-18T11:45:59.971Z,5.63
2024-04-18T11:48:27.815Z,4.10
2024-04-18T11:50:55.511Z,4.15
2024-04-18T11:53:23.103Z,5.25
2024-04-18T11:55:50.691Z,3.50
2024-04-18T11:58:18.395Z,7.10
2024-04-18T12:00:45.973Z,6.35
2024-04-18T12:03:13.613Z,4.88
2024-04-18T12:05:41.302Z,3.63
2024-04-18T12:08:09.057Z,3.63
2024-04-18T12:10:36.600Z,5.47
2024-04-18T12:13:04.709Z,5.63
2024-04-18T12:15:33.263Z,7.00
2024-04-18T12:18:00.883Z,8.45
2024-04-18T12:20:28.498Z,6.80
2024-04-18T12:22:56.468Z,5.68
2024-04-18T12:25:24.106Z,5.43
2024-04-18T12:27:51.843Z,8.25
2024-04-18T12:30:19.523Z,4.78
2024-04-18T12:32:47.203Z,3.90
2024-04-18T12:35:15.048Z,8.15
2024-04-18T12:37:42.559Z,7.53
2024-04-18T12:40:10.813Z,6.97
2024-04-18T12:42:38.539Z,8.00
2024-04-18T12:45:06.932Z,8.68
2024-04-18T12:47:34.797Z,10.25
2024-04-18T12:50:02.544Z,4.85
2024-04-18T12:52:30.149Z,7.93
2024-04-18T12:54:57.714Z,20.45
2024-04-18T12:57:25.364Z,11.13
2024-04-18T12:59:53.011Z,6.82
2024-04-18T13:02:20.630Z,8.93
2024-04-18T13:04:48.303Z,7.57
2024-04-18T13:07:15.914Z,10.88
2024-04-18T13:09:43.494Z,13.15
2024-04-18T13:12:11.192Z,11.90
2024-04-18T13:14:38.745Z,8.02
2024-04-18T13:17:06.401Z,7.15
2024-04-18T13:19:33.954Z,6.50
2024-04-18T13:22:01.587Z,12.55
2024-04-18T13:24:29.601Z,7.13
2024-04-18T13:26:57.404Z,2.72
2024-04-18T13:29:25.929Z,6.13
2024-04-18T13:31:53.635Z,4.68
2024-04-18T13:34:22.252Z,4.55
2024-04-18T13:36:50.166Z,7.78
2024-04-18T13:39:17.782Z,4.05
2024-04-18T13:41:45.448Z,7.10
2024-04-18T13:44:13.219Z,6.85
2024-04-18T13:46:40.792Z,9.57
2024-04-18T13:49:08.330Z,4.78
2024-04-18T13:51:36.050Z,6.75
2024-04-18T13:54:03.654Z,2.38
2024-04-18T13:56:31.348Z,2.22
2024-04-18T13:58:58.974Z,2.67
2024-04-18T14:01:26.604Z,5.43
2024-04-18T14:03:54.400Z,5.90
2024-04-18T14:06:22.124Z,8.07
2024-04-18T14:08:49.717Z,5.38
2024-04-18T14:11:17.325Z,5.68
2024-04-18T14:13:45.027Z,4.22
2024-04-18T14:16:12.722Z,6.47
2024-04-18T14:18:40.471Z,6.72
2024-04-18T14:21:08.369Z,3.60
2024-04-18T14:23:35.909Z,6.43
2024-04-18T14:26:03.844Z,8.38
2024-04-18T14:28:33.418Z,6.70
2024-04-18T14:31:02.181Z,1.73
2024-04-18T14:33:29.830Z,5.78
2024-04-18T14:35:57.553Z,5.85
2024-04-18T14:38:25.295Z,3.50
2024-04-18T14:40:57.718Z,3.80
2024-04-18T14:43:33.604Z,4.57
2024-04-18T14:46:01.115Z,6.68
2024-04-18T14:48:28.726Z,4.55
2024-04-18T14:50:56.379Z,8.73
2024-04-18T14:53:26.872Z,7.38
2024-04-18T14:55:55.158Z,6.93
2024-04-18T14:58:22.839Z,6.93
2024-04-18T15:00:52.327Z,7.72
2024-04-18T15:03:21.694Z,7.35
2024-04-18T15:05:57.595Z,6.05
2024-04-18T15:10:52.939Z,3.22
2024-04-18T15:13:20.582Z,6.18
2024-04-18T15:15:48.317Z,7.38
2024-04-18T15:18:16.196Z,4.03
2024-04-18T15:20:44.155Z,1.92
2024-04-18T15:23:11.973Z,3.25
2024-04-18T15:25:39.593Z,1.73
2024-04-18T15:28:07.683Z,4.53
2024-04-18T15:30:35.434Z,3.88
2024-04-18T15:33:03.281Z,3.60
2024-04-18T15:35:31.164Z,3.22
2024-04-18T15:37:58.765Z,3.42
2024-04-18T15:40:26.389Z,3.50
2024-04-18T15:42:54.008Z,3.00
2024-04-18T15:45:21.671Z,4.78
2024-04-18T15:47:49.309Z,1.90
2024-04-18T15:50:18.054Z,2.10
2024-04-18T15:52:46.564Z,3.15
2024-04-18T15:55:20.102Z,5.45
2024-04-18T15:57:50.026Z,2.40
2024-04-18T16:00:17.757Z,4.20
2024-04-18T16:02:48.635Z,5.35
2024-04-18T16:05:19.033Z,2.70
2024-04-18T16:07:46.545Z,3.08
2024-04-18T16:10:14.981Z,1.90
2024-04-18T16:12:42.619Z,4.15
2024-04-18T16:15:10.318Z,3.42
2024-04-18T16:17:37.884Z,3.47
2024-04-18T16:20:05.736Z,3.20
2024-04-18T16:22:33.377Z,4.75
2024-04-18T16:25:01.063Z,2.28
2024-04-18T16:27:28.727Z,2.85
2024-04-18T16:29:56.603Z,4.75
2024-04-18T16:32:24.120Z,3.03
2024-04-18T16:34:51.884Z,4.78
2024-04-18T16:37:21.100Z,3.20
2024-04-18T16:39:49.759Z,2.17
2024-04-18T16:42:17.420Z,3.13
2024-04-18T16:44:45.003Z,3.17
2024-04-18T16:47:12.616Z,1.88
2024-04-18T16:49:40.296Z,1.88
2024-04-18T16:52:10.552Z,5.35
2024-04-18T16:54:38.825Z,2.47
2024-04-18T16:57:06.618Z,1.92
2024-04-18T16:59:34.237Z,2.55
2024-04-18T17:02:01.824Z,1.67
2024-04-18T17:04:29.713Z,3.75
2024-04-18T17:06:57.418Z,2.28
2024-04-18T17:09:24.972Z,2.35
2024-04-18T17:11:52.572Z,1.40
2024-04-18T17:14:20.124Z,2.92
2024-04-18T17:16:47.916Z,2.78
2024-04-18T17:19:15.490Z,2.35
2024-04-18T17:21:43.150Z,3.97
2024-04-18T17:24:11.257Z,2.38
2024-04-18T17:26:38.893Z,2.90
2024-04-18T17:29:06.417Z,0.80
2024-04-18T17:31:34.084Z,4.13
2024-04-18T17:34:01.722Z,2.28
2024-04-18T17:36:29.424Z,2.00
2024-04-18T17:38:57.112Z,1.90
2024-04-18T17:41:24.706Z,1.60
2024-04-18T17:43:52.245Z,1.30
2024-04-18T17:46:19.796Z,3.88
2024-04-18T17:48:47.777Z,1.27
2024-04-18T17:51:15.834Z,1.27
2024-04-18T17:53:43.478Z,0.75
2024-04-18T17:56:11.017Z,1.70
2024-04-18T17:58:38.545Z,2.17
2024-04-18T18:01:06.195Z,2.50
2024-04-18T18:03:33.751Z,3.00
2024-04-18T18:06:01.346Z,2.13
2024-04-18T18:08:28.900Z,1.58
2024-04-18T18:10:56.450Z,2.03
2024-04-18T18:13:24.074Z,2.50
2024-04-18T18:15:51.715Z,7.20
2024-04-18T18:18:19.559Z,2.30
2024-04-18T18:20:47.153Z,3.25
2024-04-18T18:23:16.715Z,6.75
2024-04-18T18:25:44.516Z,2.92
2024-04-18T18:28:12.049Z,3.08
2024-04-18T18:30:39.928Z,3.15
2024-04-18T18:33:08.007Z,2.28
2024-04-18T18:35:35.991Z,3.90
2024-04-18T18:38:03.700Z,5.60
2024-04-18T18:40:34.098Z,5.95
2024-04-18T18:43:03.326Z,12.20
2024-04-18T18:45:30.866Z,6.43
2024-04-18T18:47:58.432Z,7.68
2024-04-18T18:50:26.049Z,8.35
2024-04-18T18:52:53.651Z,8.82
2024-04-18T18:55:21.206Z,8.40
2024-04-18T18:57:48.778Z,8.18
2024-04-18T19:00:16.449Z,8.13
2024-04-18T19:02:44.214Z,11.75
2024-04-18T19:05:11.827Z,9.43
2024-04-18T19:07:39.307Z,7.50
2024-04-18T19:10:07.243Z,8.65
2024-04-18T19:12:34.865Z,9.95
2024-04-18T19:15:02.395Z,7.07
2024-04-18T19:17:30.144Z,10.32
2024-04-18T19:19:57.844Z,10.07
2024-04-18T19:22:25.320Z,9.23
2024-04-18T19:24:52.858Z,9.38
2024-04-18T19:27:20.427Z,9.35
2024-04-18T19:29:48.026Z,8.65
2024-04-18T19:32:16.104Z,9.95
2024-04-18T19:34:43.819Z,12.27
2024-04-18T19:37:11.703Z,7.47
2024-04-18T19:39:39.453Z,9.02
2024-04-18T19:42:07.103Z,7.38
2024-04-18T19:44:34.732Z,11.73
2024-04-18T19:47:02.278Z,7.00
2024-04-18T19:49:29.861Z,8.88
2024-04-18T19:52:01.548Z,6.75
2024-04-18T19:54:31.739Z,10.95
2024-04-18T19:56:59.328Z,8.23
2024-04-18T19:59:27.173Z,13.77
2024-04-18T20:01:54.699Z,4.75
2024-04-18T20:04:22.256Z,4.70
2024-04-18T20:06:49.948Z,3.83
2024-04-18T20:09:17.555Z,8.13
2024-04-18T20:11:45.170Z,9.93
2024-04-18T20:14:12.770Z,7.43
2024-04-18T20:16:40.318Z,10.68
2024-04-18T20:19:07.901Z,7.75
2024-04-18T20:21:35.472Z,7.95
2024-04-18T20:24:03.427Z,8.43
2024-04-18T20:26:30.943Z,9.10
2024-04-18T20:28:58.610Z,6.70
2024-04-18T20:31:26.165Z,12.90
2024-04-18T20:33:53.696Z,6.90
2024-04-18T20:36:21.342Z,13.88
2024-04-18T20:38:49.236Z,11.48
2024-04-18T20:41:16.911Z,8.10
2024-04-18T20:43:44.421Z,16.10
2024-04-18T20:46:25.975Z,6.65
2024-04-18T20:48:54.044Z,9.75
2024-04-18T20:51:22.827Z,13.65
2024-04-18T20:53:50.755Z,10.85
2024-04-18T20:56:18.283Z,10.05
2024-04-18T20:58:46.115Z,7.90
2024-04-18T21:01:13.969Z,8.05
2024-04-18T21:03:41.942Z,7.28
2024-04-18T21:06:09.576Z,9.32
2024-04-18T21:08:37.149Z,9.55
2024-04-18T21:11:04.880Z,9.73
2024-04-18T21:13:32.425Z,8.27
2024-04-18T21:16:03.716Z,11.65
2024-04-18T21:18:31.455Z,10.00
2024-04-18T21:20:59.472Z,3.28
2024-04-18T21:23:27.468Z,10.40
2024-04-18T21:25:55.182Z,5.68
2024-04-18T21:28:22.789Z,13.82
2024-04-18T21:30:50.296Z,9.98
2024-04-18T21:33:18.142Z,9.73
2024-04-18T21:35:49.093Z,9.82
2024-04-18T21:38:17.716Z,12.25
2024-04-18T21:40:45.617Z,7.25
2024-04-18T21:43:13.409Z,8.63
2024-04-18T21:45:41.876Z,8.23
2024-04-18T21:48:09.850Z,8.43
2024-04-18T21:50:39.077Z,4.93
2024-04-18T21:53:06.811Z,4.88
2024-04-18T21:55:34.679Z,5.72
2024-04-18T21:58:02.548Z,9.45
2024-04-18T22:00:30.284Z,8.30
2024-04-18T22:02:58.159Z,6.75
2024-04-18T22:05:25.659Z,6.53
2024-04-18T22:07:53.278Z,7.35
2024-04-18T22:10:20.907Z,4.05
2024-04-18T22:12:48.420Z,15.60
2024-04-18T22:15:16.150Z,4.35
2024-04-18T22:17:43.822Z,5.80
2024-04-18T22:20:11.525Z,6.57
2024-04-18T22:22:39.087Z,4.22
2024-04-18T22:25:06.700Z,10.70
2024-04-18T22:27:34.917Z,5.53
2024-04-18T22:30:02.504Z,6.45
2024-04-18T22:32:30.087Z,3.65
2024-04-18T22:34:57.648Z,8.85
2024-04-18T22:37:25.274Z,4.72
2024-04-18T22:39:52.897Z,4.78
2024-04-18T22:42:21.084Z,3.97
2024-04-18T22:44:48.681Z,4.93
2024-04-18T22:47:16.358Z,5.38
2024-04-18T22:49:44.057Z,5.43
2024-04-18T22:52:11.620Z,9.20
2024-04-18T22:54:39.408Z,5.72
2024-04-18T22:57:06.991Z,2.47
2024-04-18T22:59:34.579Z,4.88
2024-04-18T23:02:02.492Z,5.70
2024-04-18T23:04:30.420Z,5.70
2024-04-18T23:06:58.002Z,3.83
2024-04-18T23:09:25.703Z,4.88
2024-04-18T23:11:53.273Z,4.45
2024-04-18T23:14:20.917Z,6.82
2024-04-18T23:16:48.495Z,5.63
2024-04-18T23:19:16.098Z,6.40
2024-04-18T23:21:43.759Z,3.10
2024-04-18T23:24:11.559Z,3.92
2024-04-18T23:26:39.039Z,4.65
2024-04-18T23:29:06.583Z,8.90
2024-04-18T23:31:34.166Z,5.65
2024-04-18T23:34:01.761Z,4.07
2024-04-18T23:36:29.409Z,7.13
2024-04-18T23:38:57.052Z,6.55
2024-04-18T23:41:24.643Z,5.47
2024-04-18T23:43:52.684Z,2.97
2024-04-18T23:46:20.267Z,5.75
2024-04-18T23:48:48.080Z,5.15
2024-04-18T23:51:15.757Z,2.80
2024-04-18T23:53:43.328Z,10.10
2024-04-18T23:56:10.835Z,4.22
2024-04-18T23:58:38.369Z,4.57
